sensor_id;sensor_type;location;lat;lon;timestamp;pressure;altitude;pressure_sealevel;temperature;humidity
65800;BME280;52544;48.116;11.660;2022-08-05T00:00:14;95387.59;;;24.32;60.34
65800;BME280;52544;48.116;11.660;2022-08-05T00:02:40;95381.03;;;24.46;59.49
65800;BME280;52544;48.116;11.660;2022-08-05T00:05:06;95378.63;;;24.38;60.15
65800;BME280;52544;48.116;11.660;2022-08-05T00:07:31;95382.63;;;24.29;59.24
65800;BME280;52544;48.116;11.660;2022-08-05T00:09:57;95378.72;;;24.25;59.99
65800;BME280;52544;48.116;11.660;2022-08-05T00:12:22;95375.41;;;24.23;59.75
65800;BME280;52544;48.116;11.660;2022-08-05T00:14:48;95375.28;;;24.11;59.91
65800;BME280;52544;48.116;11.660;2022-08-05T00:17:13;95371.75;;;24.10;60.11
65800;BME280;52544;48.116;11.660;2022-08-05T00:19:38;95369.63;;;24.19;60.30
65800;BME280;52544;48.116;11.660;2022-08-05T00:22:04;95369.88;;;24.11;60.35
65800;BME280;52544;48.116;11.660;2022-08-05T00:24:29;95370.81;;;23.98;60.31
65800;BME280;52544;48.116;11.660;2022-08-05T00:26:55;95366.47;;;23.97;60.31
65800;BME280;52544;48.116;11.660;2022-08-05T00:29:20;95361.84;;;23.73;61.83
65800;BME280;52544;48.116;11.660;2022-08-05T00:31:46;95361.09;;;23.59;62.41
65800;BME280;52544;48.116;11.660;2022-08-05T00:34:11;95361.75;;;23.54;62.14
65800;BME280;52544;48.116;11.660;2022-08-05T00:36:36;95356.34;;;23.54;62.95
65800;BME280;52544;48.116;11.660;2022-08-05T00:39:02;95361.91;;;23.59;62.45
65800;BME280;52544;48.116;11.660;2022-08-05T00:41:30;95357.09;;;23.61;62.12
65800;BME280;52544;48.116;11.660;2022-08-05T00:43:55;95361.69;;;23.67;62.21
65800;BME280;52544;48.116;11.660;2022-08-05T00:46:21;95359.97;;;23.73;62.08
65800;BME280;52544;48.116;11.660;2022-08-05T00:48:47;95365.63;;;23.72;61.53
65800;BME280;52544;48.116;11.660;2022-08-05T00:51:13;95352.59;;;23.55;61.78
65800;BME280;52544;48.116;11.660;2022-08-05T00:53:39;95354.25;;;23.56;62.03
65800;BME280;52544;48.116;11.660;2022-08-05T00:56:05;95354.72;;;23.47;61.80
65800;BME280;52544;48.116;11.660;2022-08-05T00:58:31;95356.03;;;23.37;62.00
65800;BME280;52544;48.116;11.660;2022-08-05T01:00:57;95357.28;;;23.35;62.75
65800;BME280;52544;48.116;11.660;2022-08-05T01:03:22;95355.63;;;23.34;63.08
65800;BME280;52544;48.116;11.660;2022-08-05T01:05:51;95354.78;;;23.33;63.30
65800;BME280;52544;48.116;11.660;2022-08-05T01:08:17;95349.00;;;23.30;62.87
65800;BME280;52544;48.116;11.660;2022-08-05T01:10:46;95349.81;;;23.30;63.54
65800;BME280;52544;48.116;11.660;2022-08-05T01:13:31;95347.34;;;23.29;63.49
65800;BME280;52544;48.116;11.660;2022-08-05T01:15:59;95347.34;;;23.29;62.86
65800;BME280;52544;48.116;11.660;2022-08-05T01:18:33;95348.59;;;23.26;63.71
65800;BME280;52544;48.116;11.660;2022-08-05T01:29:12;95353.06;;;23.01;65.08
65800;BME280;52544;48.116;11.660;2022-08-05T01:31:44;95350.34;;;23.07;64.46
65800;BME280;52544;48.116;11.660;2022-08-05T01:34:27;95356.59;;;23.01;64.27
65800;BME280;52544;48.116;11.660;2022-08-05T01:37:11;95353.88;;;23.08;63.48
65800;BME280;52544;48.116;11.660;2022-08-05T01:39:39;95353.47;;;23.11;64.23
65800;BME280;52544;48.116;11.660;2022-08-05T01:42:08;95351.59;;;23.11;63.74
65800;BME280;52544;48.116;11.660;2022-08-05T01:44:36;95356.13;;;23.17;63.24
65800;BME280;52544;48.116;11.660;2022-08-05T01:47:03;95349.81;;;23.30;63.55
65800;BME280;52544;48.116;11.660;2022-08-05T01:49:31;95352.28;;;23.38;63.15
65800;BME280;52544;48.116;11.660;2022-08-05T01:51:59;95352.28;;;23.38;62.46
65800;BME280;52544;48.116;11.660;2022-08-05T01:54:30;95349.00;;;23.30;61.68
65800;BME280;52544;48.116;11.660;2022-08-05T01:56:56;95348.13;;;23.36;62.22
65800;BME280;52544;48.116;11.660;2022-08-05T01:59:25;95355.56;;;23.40;62.75
65800;BME280;52544;48.116;11.660;2022-08-05T02:01:53;95349.72;;;23.50;62.05
65800;BME280;52544;48.116;11.660;2022-08-05T02:04:21;95350.16;;;23.47;62.20
65800;BME280;52544;48.116;11.660;2022-08-05T02:06:48;95353.91;;;23.46;62.80
65800;BME280;52544;48.116;11.660;2022-08-05T02:09:14;95353.47;;;23.49;63.38
65800;BME280;52544;48.116;11.660;2022-08-05T02:12:11;95355.16;;;23.43;63.53
65800;BME280;52544;48.116;11.660;2022-08-05T02:14:43;95347.44;;;23.47;63.30
65800;BME280;52544;48.116;11.660;2022-08-05T02:17:32;95349.72;;;23.50;63.28
65800;BME280;52544;48.116;11.660;2022-08-05T02:20:02;95356.78;;;23.51;63.24
65800;BME280;52544;48.116;11.660;2022-08-05T02:22:54;95349.72;;;23.50;63.19
65800;BME280;52544;48.116;11.660;2022-08-05T02:25:26;95347.63;;;23.52;63.07
65800;BME280;52544;48.116;11.660;2022-08-05T02:27:55;95355.97;;;23.44;63.10
65800;BME280;52544;48.116;11.660;2022-08-05T02:30:22;95344.84;;;23.27;63.47
65800;BME280;52544;48.116;11.660;2022-08-05T02:32:51;95347.41;;;23.15;63.70
65800;BME280;52544;48.116;11.660;2022-08-05T02:35:20;95351.06;;;23.28;63.59
65800;BME280;52544;48.116;11.660;2022-08-05T02:37:48;95345.72;;;23.21;64.34
65800;BME280;52544;48.116;11.660;2022-08-05T02:40:15;95351.06;;;23.28;63.88
65800;BME280;52544;48.116;11.660;2022-08-05T02:42:41;95353.16;;;23.32;63.13
65800;BME280;52544;48.116;11.660;2022-08-05T02:45:08;95346.28;;;23.36;63.50
65800;BME280;52544;48.116;11.660;2022-08-05T02:47:35;95343.19;;;23.33;63.88
65800;BME280;52544;48.116;11.660;2022-08-05T02:50:03;95345.31;;;23.24;64.30
65800;BME280;52544;48.116;11.660;2022-08-05T02:52:29;95347.59;;;23.20;64.11
65800;BME280;52544;48.116;11.660;2022-08-05T02:54:56;95346.78;;;23.13;63.88
65800;BME280;52544;48.116;11.660;2022-08-05T02:57:23;95341.16;;;23.15;64.62
65800;BME280;52544;48.116;11.660;2022-08-05T02:59:50;95336.16;;;23.18;64.52
65800;BME280;52544;48.116;11.660;2022-08-05T03:02:21;95343.84;;;23.22;64.59
65800;BME280;52544;48.116;11.660;2022-08-05T03:04:49;95337.03;;;23.12;64.83
65800;BME280;52544;48.116;11.660;2022-08-05T03:07:17;95342.06;;;22.89;65.88
65800;BME280;52544;48.116;11.660;2022-08-05T03:09:43;95350.16;;;22.89;66.21
65800;BME280;52544;48.116;11.660;2022-08-05T03:12:27;95337.94;;;23.00;65.04
65800;BME280;52544;48.116;11.660;2022-08-05T03:14:53;95339.41;;;22.82;65.95
65800;BME280;52544;48.116;11.660;2022-08-05T03:17:18;95345.00;;;22.81;65.72
65800;BME280;52544;48.116;11.660;2022-08-05T03:19:44;95335.50;;;22.78;66.21
65800;BME280;52544;48.116;11.660;2022-08-05T03:22:09;95343.78;;;22.83;66.76
65800;BME280;52544;48.116;11.660;2022-08-05T03:24:35;95342.53;;;22.86;66.33
65800;BME280;52544;48.116;11.660;2022-08-05T03:27:00;95334.22;;;22.87;65.94
65800;BME280;52544;48.116;11.660;2022-08-05T03:29:26;95338.41;;;22.90;65.68
65800;BME280;52544;48.116;11.660;2022-08-05T03:31:51;95340.66;;;22.86;65.58
65800;BME280;52544;48.116;11.660;2022-08-05T03:34:17;95331.16;;;22.77;65.96
65800;BME280;52544;48.116;11.660;2022-08-05T03:36:44;95333.25;;;22.68;66.43
65800;BME280;52544;48.116;11.660;2022-08-05T03:39:09;95345.88;;;22.68;67.11
65800;BME280;52544;48.116;11.660;2022-08-05T03:41:34;95339.66;;;22.67;66.80
65800;BME280;52544;48.116;11.660;2022-08-05T03:44:00;95332.84;;;22.65;66.46
65800;BME280;52544;48.116;11.660;2022-08-05T03:46:25;95343.84;;;22.57;66.17
65800;BME280;52544;48.116;11.660;2022-08-05T03:48:51;95331.66;;;22.41;67.57
65800;BME280;52544;48.116;11.660;2022-08-05T03:51:20;95346.38;;;22.32;67.93
65800;BME280;52544;48.116;11.660;2022-08-05T03:53:56;95336.88;;;22.23;67.83
65800;BME280;52544;48.116;11.660;2022-08-05T03:56:33;95334.38;;;22.21;67.79
65800;BME280;52544;48.116;11.660;2022-08-05T03:59:05;95334.38;;;22.21;68.31
65800;BME280;52544;48.116;11.660;2022-08-05T04:01:31;95330.00;;;22.40;67.38
65800;BME280;52544;48.116;11.660;2022-08-05T04:04:00;95330.00;;;22.40;68.04
65800;BME280;52544;48.116;11.660;2022-08-05T04:06:27;95328.75;;;22.36;68.48
65800;BME280;52544;48.116;11.660;2022-08-05T04:08:53;95335.19;;;22.35;68.42
65800;BME280;52544;48.116;11.660;2022-08-05T04:11:19;95335.19;;;22.28;68.81
65800;BME280;52544;48.116;11.660;2022-08-05T04:13:45;95331.47;;;22.23;68.85
65800;BME280;52544;48.116;11.660;2022-08-05T04:16:11;95334.38;;;22.14;68.89
65800;BME280;52544;48.116;11.660;2022-08-05T04:18:37;95332.28;;;22.10;69.55
65800;BME280;52544;48.116;11.660;2022-08-05T04:21:05;95347.22;;;22.12;69.62
65800;BME280;52544;48.116;11.660;2022-08-05T04:23:32;95340.16;;;22.11;69.87
65800;BME280;52544;48.116;11.660;2022-08-05T04:25:58;95333.53;;;22.07;70.03
65800;BME280;52544;48.116;11.660;2022-08-05T04:28:24;95338.69;;;22.09;69.95
65800;BME280;52544;48.116;11.660;2022-08-05T04:30:49;95346.19;;;21.93;70.68
65800;BME280;52544;48.116;11.660;2022-08-05T04:33:15;95353.00;;;21.89;71.06
65800;BME280;52544;48.116;11.660;2022-08-05T04:35:41;95362.97;;;21.89;71.18
65800;BME280;52544;48.116;11.660;2022-08-05T04:38:07;95369.38;;;21.94;71.10
65800;BME280;52544;48.116;11.660;2022-08-05T04:40:37;95382.00;;;21.81;71.62
65800;BME280;52544;48.116;11.660;2022-08-05T04:43:03;95404.97;;;21.70;72.50
65800;BME280;52544;48.116;11.660;2022-08-05T04:45:28;95404.38;;;21.81;72.20
65800;BME280;52544;48.116;11.660;2022-08-05T04:48:04;95410.81;;;21.93;71.84
65800;BME280;52544;48.116;11.660;2022-08-05T04:50:30;95409.81;;;22.01;71.62
65800;BME280;52544;48.116;11.660;2022-08-05T04:52:56;95405.22;;;22.08;70.44
65800;BME280;52544;48.116;11.660;2022-08-05T04:55:21;95405.25;;;22.21;70.00
65800;BME280;52544;48.116;11.660;2022-08-05T04:57:47;95407.34;;;22.33;70.32
65800;BME280;52544;48.116;11.660;2022-08-05T05:00:12;95412.53;;;22.41;69.92
65800;BME280;52544;48.116;11.660;2022-08-05T05:02:38;95410.66;;;22.48;69.46
65800;BME280;52544;48.116;11.660;2022-08-05T05:05:04;95406.28;;;22.60;69.27
65800;BME280;52544;48.116;11.660;2022-08-05T05:07:30;95413.94;;;22.70;68.84
65800;BME280;52544;48.116;11.660;2022-08-05T05:09:55;95402.09;;;22.78;68.47
65800;BME280;52544;48.116;11.660;2022-08-05T05:12:21;95410.56;;;22.88;67.70
65800;BME280;52544;48.116;11.660;2022-08-05T05:14:46;95407.69;;;22.96;65.88
65800;BME280;52544;48.116;11.660;2022-08-05T05:17:11;95417.19;;;23.05;66.42
65800;BME280;52544;48.116;11.660;2022-08-05T05:19:37;95412.19;;;23.15;66.42
65800;BME280;52544;48.116;11.660;2022-08-05T05:22:03;95409.69;;;23.20;66.36
65800;BME280;52544;48.116;11.660;2022-08-05T05:24:29;95413.78;;;23.30;65.37
65800;BME280;52544;48.116;11.660;2022-08-05T05:26:54;95418.94;;;23.38;65.31
65800;BME280;52544;48.116;11.660;2022-08-05T05:29:20;95411.66;;;23.45;64.43
65800;BME280;52544;48.116;11.660;2022-08-05T05:31:45;95414.06;;;23.53;63.85
65800;BME280;52544;48.116;11.660;2022-08-05T05:34:10;95415.50;;;23.62;63.64
65800;BME280;52544;48.116;11.660;2022-08-05T05:36:36;95415.50;;;23.69;62.89
65800;BME280;52544;48.116;11.660;2022-08-05T05:39:01;95419.38;;;23.80;61.37
65800;BME280;52544;48.116;11.660;2022-08-05T05:41:27;95420.56;;;23.90;61.66
65800;BME280;52544;48.116;11.660;2022-08-05T05:43:52;95423.81;;;23.99;61.40
65800;BME280;52544;48.116;11.660;2022-08-05T05:46:18;95419.19;;;24.06;60.34
65800;BME280;52544;48.116;11.660;2022-08-05T05:48:44;95430.34;;;24.16;60.01
65800;BME280;52544;48.116;11.660;2022-08-05T05:51:10;95428.00;;;24.27;59.73
65800;BME280;52544;48.116;11.660;2022-08-05T05:53:35;95424.59;;;24.38;59.14
65800;BME280;52544;48.116;11.660;2022-08-05T05:56:01;95426.81;;;24.48;58.87
65800;BME280;52544;48.116;11.660;2022-08-05T05:58:27;95429.00;;;24.57;58.19
65800;BME280;52544;48.116;11.660;2022-08-05T06:00:52;95425.59;;;24.68;57.68
65800;BME280;52544;48.116;11.660;2022-08-05T06:03:17;95427.09;;;24.83;57.13
65800;BME280;52544;48.116;11.660;2022-08-05T06:05:43;95423.88;;;24.92;57.57
65800;BME280;52544;48.116;11.660;2022-08-05T06:08:08;95419.16;;;25.06;55.49
65800;BME280;52544;48.116;11.660;2022-08-05T06:10:35;95421.59;;;25.14;55.83
65800;BME280;52544;48.116;11.660;2022-08-05T06:13:01;95419.78;;;25.27;54.95
65800;BME280;52544;48.116;11.660;2022-08-05T06:15:26;95428.53;;;25.29;54.90
65800;BME280;52544;48.116;11.660;2022-08-05T06:17:52;95419.28;;;25.36;54.01
65800;BME280;52544;48.116;11.660;2022-08-05T06:20:17;95424.59;;;25.43;53.38
65800;BME280;52544;48.116;11.660;2022-08-05T06:22:43;95417.06;;;25.45;53.49
65800;BME280;52544;48.116;11.660;2022-08-05T06:25:09;95430.44;;;25.40;54.09
65800;BME280;52544;48.116;11.660;2022-08-05T06:27:34;95430.44;;;25.40;54.01
65800;BME280;52544;48.116;11.660;2022-08-05T06:30:00;95424.59;;;25.43;53.62
65800;BME280;52544;48.116;11.660;2022-08-05T06:32:26;95419.47;;;25.53;52.85
65800;BME280;52544;48.116;11.660;2022-08-05T06:34:51;95413.50;;;25.63;52.33
65800;BME280;52544;48.116;11.660;2022-08-05T06:37:17;95414.00;;;25.72;53.49
65800;BME280;52544;48.116;11.660;2022-08-05T06:39:42;95417.00;;;25.82;52.45
65800;BME280;52544;48.116;11.660;2022-08-05T06:42:08;95420.22;;;25.90;52.08
65800;BME280;52544;48.116;11.660;2022-08-05T06:44:33;95416.38;;;25.98;52.26
65800;BME280;52544;48.116;11.660;2022-08-05T06:46:59;95427.50;;;26.08;51.77
65800;BME280;52544;48.116;11.660;2022-08-05T06:49:24;95431.88;;;26.21;52.21
65800;BME280;52544;48.116;11.660;2022-08-05T06:51:50;95428.97;;;26.34;51.40
65800;BME280;52544;48.116;11.660;2022-08-05T06:54:16;95428.63;;;26.42;50.82
65800;BME280;52544;48.116;11.660;2022-08-05T06:56:41;95439.50;;;26.54;50.96
65800;BME280;52544;48.116;11.660;2022-08-05T06:59:07;95435.75;;;26.67;50.68
65800;BME280;52544;48.116;11.660;2022-08-05T07:01:33;95435.75;;;26.79;50.44
65800;BME280;52544;48.116;11.660;2022-08-05T07:03:59;95435.84;;;26.84;50.09
65800;BME280;52544;48.116;11.660;2022-08-05T07:06:26;95444.97;;;26.89;49.58
65800;BME280;52544;48.116;11.660;2022-08-05T07:08:51;95442.97;;;26.85;49.83
65800;BME280;52544;48.116;11.660;2022-08-05T07:11:17;95442.72;;;26.86;49.93
65800;BME280;52544;48.116;11.660;2022-08-05T07:13:42;95450.03;;;26.86;49.95
65800;BME280;52544;48.116;11.660;2022-08-05T07:16:28;95448.03;;;26.81;49.75
65800;BME280;52544;48.116;11.660;2022-08-05T07:19:12;95457.09;;;26.75;49.58
65800;BME280;52544;48.116;11.660;2022-08-05T07:21:37;95451.19;;;26.66;49.98
65800;BME280;52544;48.116;11.660;2022-08-05T07:24:03;95465.25;;;26.63;50.26
65800;BME280;52544;48.116;11.660;2022-08-05T07:26:29;95470.91;;;26.62;50.51
65800;BME280;52544;48.116;11.660;2022-08-05T07:28:54;95471.59;;;26.57;51.21
65800;BME280;52544;48.116;11.660;2022-08-05T07:31:20;95474.78;;;26.54;51.04
65800;BME280;52544;48.116;11.660;2022-08-05T07:33:46;95481.25;;;26.53;51.35
65800;BME280;52544;48.116;11.660;2022-08-05T07:36:11;95479.50;;;26.59;51.65
65800;BME280;52544;48.116;11.660;2022-08-05T07:38:38;95485.16;;;26.57;50.34
65800;BME280;52544;48.116;11.660;2022-08-05T07:41:05;95492.81;;;26.49;50.41
65800;BME280;52544;48.116;11.660;2022-08-05T07:43:31;95496.97;;;26.51;50.56
65800;BME280;52544;48.116;11.660;2022-08-05T07:45:57;95494.72;;;26.48;50.52
65800;BME280;52544;48.116;11.660;2022-08-05T07:48:23;95489.03;;;26.50;51.31
65800;BME280;52544;48.116;11.660;2022-08-05T07:50:48;95493.78;;;26.54;52.33
65800;BME280;52544;48.116;11.660;2022-08-05T07:53:13;95502.28;;;26.58;51.65
65800;BME280;52544;48.116;11.660;2022-08-05T07:55:39;95501.22;;;26.71;50.15
65800;BME280;52544;48.116;11.660;2022-08-05T07:58:04;95514.03;;;26.94;49.81
65800;BME280;52544;48.116;11.660;2022-08-05T08:00:30;95519.13;;;27.13;50.08
65800;BME280;52544;48.116;11.660;2022-08-05T08:02:55;95522.66;;;27.37;49.42
65800;BME280;52544;48.116;11.660;2022-08-05T08:05:21;95526.56;;;27.53;49.67
65800;BME280;52544;48.116;11.660;2022-08-05T08:07:46;95531.84;;;27.72;48.91
65800;BME280;52544;48.116;11.660;2022-08-05T08:10:12;95521.44;;;27.80;48.27
65800;BME280;52544;48.116;11.660;2022-08-05T08:12:38;95535.94;;;27.98;47.76
65800;BME280;52544;48.116;11.660;2022-08-05T08:15:05;95535.59;;;27.94;47.68
65800;BME280;52544;48.116;11.660;2022-08-05T08:17:31;95529.28;;;28.05;47.50
65800;BME280;52544;48.116;11.660;2022-08-05T08:19:57;95540.16;;;28.05;46.25
65800;BME280;52544;48.116;11.660;2022-08-05T08:22:26;95534.28;;;27.97;46.47
65800;BME280;52544;48.116;11.660;2022-08-05T08:24:53;95539.00;;;28.01;47.37
65800;BME280;52544;48.116;11.660;2022-08-05T08:27:19;95535.31;;;28.07;46.03
65800;BME280;52544;48.116;11.660;2022-08-05T08:29:44;95547.34;;;28.11;46.64
65800;BME280;52544;48.116;11.660;2022-08-05T08:32:09;95544.06;;;28.09;45.93
65800;BME280;52544;48.116;11.660;2022-08-05T08:34:35;95562.94;;;28.16;44.91
65800;BME280;52544;48.116;11.660;2022-08-05T08:37:00;95568.38;;;28.16;44.54
65800;BME280;52544;48.116;11.660;2022-08-05T08:39:26;95571.03;;;27.99;44.28
65800;BME280;52544;48.116;11.660;2022-08-05T08:41:53;95570.00;;;27.88;44.76
65800;BME280;52544;48.116;11.660;2022-08-05T08:44:22;95575.81;;;27.80;45.50
65800;BME280;52544;48.116;11.660;2022-08-05T08:46:48;95585.97;;;27.73;45.09
65800;BME280;52544;48.116;11.660;2022-08-05T08:49:14;95592.47;;;27.60;45.40
65800;BME280;52544;48.116;11.660;2022-08-05T08:51:42;95592.25;;;27.50;46.82
65800;BME280;52544;48.116;11.660;2022-08-05T08:54:09;95590.81;;;27.59;46.67
65800;BME280;52544;48.116;11.660;2022-08-05T08:56:40;95602.88;;;27.63;46.58
65800;BME280;52544;48.116;11.660;2022-08-05T08:59:05;95598.03;;;27.65;45.84
65800;BME280;52544;48.116;11.660;2022-08-05T09:01:31;95604.31;;;27.66;47.51
65800;BME280;52544;48.116;11.660;2022-08-05T09:03:58;95599.91;;;27.65;47.03
65800;BME280;52544;48.116;11.660;2022-08-05T09:06:25;95606.53;;;27.69;46.19
65800;BME280;52544;48.116;11.660;2022-08-05T09:08:52;95598.72;;;27.61;46.84
65800;BME280;52544;48.116;11.660;2022-08-05T09:11:18;95609.50;;;27.67;48.33
65800;BME280;52544;48.116;11.660;2022-08-05T09:13:44;95613.38;;;27.72;47.05
65800;BME280;52544;48.116;11.660;2022-08-05T09:16:11;95617.28;;;27.64;46.57
65800;BME280;52544;48.116;11.660;2022-08-05T09:18:37;95615.16;;;27.54;47.06
65800;BME280;52544;48.116;11.660;2022-08-05T09:21:03;95622.84;;;27.57;48.04
65800;BME280;52544;48.116;11.660;2022-08-05T09:23:29;95619.19;;;27.63;47.02
65800;BME280;52544;48.116;11.660;2022-08-05T09:26:09;95619.66;;;27.72;48.68
65800;BME280;52544;48.116;11.660;2022-08-05T09:28:36;95626.03;;;27.78;45.97
65800;BME280;52544;48.116;11.660;2022-08-05T09:31:08;95624.41;;;27.88;46.70
65800;BME280;52544;48.116;11.660;2022-08-05T09:33:52;95615.78;;;27.92;46.51
65800;BME280;52544;48.116;11.660;2022-08-05T09:36:19;95617.25;;;27.99;45.96
65800;BME280;52544;48.116;11.660;2022-08-05T09:39:02;95631.00;;;28.04;46.29
65800;BME280;52544;48.116;11.660;2022-08-05T09:41:28;95623.50;;;28.11;46.27
65800;BME280;52544;48.116;11.660;2022-08-05T09:43:54;95622.56;;;28.18;46.62
65800;BME280;52544;48.116;11.660;2022-08-05T09:46:27;95624.31;;;28.24;45.69
65800;BME280;52544;48.116;11.660;2022-08-05T09:48:53;95627.59;;;28.37;46.26
65800;BME280;52544;48.116;11.660;2022-08-05T09:51:30;95618.03;;;28.47;44.94
65800;BME280;52544;48.116;11.660;2022-08-05T09:53:57;95627.34;;;28.51;44.19
65800;BME280;52544;48.116;11.660;2022-08-05T09:56:26;95616.09;;;28.59;45.35
65800;BME280;52544;48.116;11.660;2022-08-05T09:58:58;95625.97;;;28.65;46.40
65800;BME280;52544;48.116;11.660;2022-08-05T10:01:24;95629.00;;;28.80;45.93
65800;BME280;52544;48.116;11.660;2022-08-05T10:03:56;95620.41;;;28.88;45.57
65800;BME280;52544;48.116;11.660;2022-08-05T10:06:24;95618.81;;;29.04;44.22
65800;BME280;52544;48.116;11.660;2022-08-05T10:08:51;95621.81;;;29.03;44.11
65800;BME280;52544;48.116;11.660;2022-08-05T10:11:17;95616.78;;;29.11;42.44
65800;BME280;52544;48.116;11.660;2022-08-05T10:13:43;95619.66;;;29.05;43.54
65800;BME280;52544;48.116;11.660;2022-08-05T10:16:30;95626.13;;;28.87;43.13
65800;BME280;52544;48.116;11.660;2022-08-05T10:18:57;95632.97;;;28.89;43.30
65800;BME280;52544;48.116;11.660;2022-08-05T10:21:22;95629.84;;;28.81;45.38
65800;BME280;52544;48.116;11.660;2022-08-05T10:23:49;95633.59;;;28.80;46.74
65800;BME280;52544;48.116;11.660;2022-08-05T10:26:14;95635.75;;;28.78;46.57
65800;BME280;52544;48.116;11.660;2022-08-05T10:28:44;95635.38;;;28.86;45.37
65800;BME280;52544;48.116;11.660;2022-08-05T10:31:11;95638.38;;;29.01;44.09
65800;BME280;52544;48.116;11.660;2022-08-05T10:33:37;95645.91;;;29.11;44.26
65800;BME280;52544;48.116;11.660;2022-08-05T10:36:04;95646.09;;;29.21;44.84
65800;BME280;52544;48.116;11.660;2022-08-05T10:38:30;95645.94;;;29.28;44.06
65800;BME280;52544;48.116;11.660;2022-08-05T10:41:06;95639.56;;;29.39;42.31
65800;BME280;52544;48.116;11.660;2022-08-05T10:44:00;95635.81;;;29.57;41.72
65800;BME280;52544;48.116;11.660;2022-08-05T10:46:47;95639.84;;;29.71;41.88
65800;BME280;52544;48.116;11.660;2022-08-05T10:49:13;95639.41;;;29.79;42.02
65800;BME280;52544;48.116;11.660;2022-08-05T10:51:42;95633.66;;;29.98;40.46
65800;BME280;52544;48.116;11.660;2022-08-05T10:54:08;95634.59;;;30.03;40.41
65800;BME280;52544;48.116;11.660;2022-08-05T10:56:51;95630.56;;;30.11;39.65
65800;BME280;52544;48.116;11.660;2022-08-05T10:59:30;95631.81;;;30.20;42.70
65800;BME280;52544;48.116;11.660;2022-08-05T11:02:10;95635.78;;;30.29;40.79
65800;BME280;52544;48.116;11.660;2022-08-05T11:04:47;95636.59;;;30.30;41.03
65800;BME280;52544;48.116;11.660;2022-08-05T11:07:14;95627.44;;;30.41;41.93
65800;BME280;52544;48.116;11.660;2022-08-05T11:09:52;95630.03;;;30.53;42.43
65800;BME280;52544;48.116;11.660;2022-08-05T11:17:40;95627.88;;;30.77;40.26
65800;BME280;52544;48.116;11.660;2022-08-05T11:20:07;95628.56;;;30.89;40.78
65800;BME280;52544;48.116;11.660;2022-08-05T11:22:52;95619.63;;;30.99;41.58
65800;BME280;52544;48.116;11.660;2022-08-05T11:25:37;95616.78;;;31.16;39.71
65800;BME280;52544;48.116;11.660;2022-08-05T11:35:56;95620.22;;;31.33;39.66
65800;BME280;52544;48.116;11.660;2022-08-05T11:41:04;95620.81;;;31.35;40.18
65800;BME280;52544;48.116;11.660;2022-08-05T11:43:30;95616.09;;;31.30;39.61
65800;BME280;52544;48.116;11.660;2022-08-05T11:45:57;95610.97;;;31.39;40.38
65800;BME280;52544;48.116;11.660;2022-08-05T11:48:23;95617.38;;;31.50;38.75
65800;BME280;52544;48.116;11.660;2022-08-05T11:50:49;95615.19;;;31.52;36.92
65800;BME280;52544;48.116;11.660;2022-08-05T11:53:15;95610.94;;;31.34;40.09
65800;BME280;52544;48.116;11.660;2022-08-05T11:56:01;95615.06;;;31.36;38.59
65800;BME280;52544;48.116;11.660;2022-08-05T11:58:33;95613.69;;;31.34;38.23
65800;BME280;52544;48.116;11.660;2022-08-05T12:01:04;95609.09;;;31.12;38.96
65800;BME280;52544;48.116;11.660;2022-08-05T12:03:49;95612.16;;;30.89;39.40
65800;BME280;52544;48.116;11.660;2022-08-05T12:06:22;95598.44;;;30.84;39.64
65800;BME280;52544;48.116;11.660;2022-08-05T12:08:54;95601.44;;;30.82;39.78
65800;BME280;52544;48.116;11.660;2022-08-05T12:11:25;95594.09;;;30.88;40.63
65800;BME280;52544;48.116;11.660;2022-08-05T12:16:20;95594.78;;;31.00;38.78
65800;BME280;52544;48.116;11.660;2022-08-05T12:18:46;95597.50;;;31.00;39.83
65800;BME280;52544;48.116;11.660;2022-08-05T12:21:13;95587.31;;;30.91;40.56
65800;BME280;52544;48.116;11.660;2022-08-05T12:23:39;95590.72;;;30.76;39.30
65800;BME280;52544;48.116;11.660;2022-08-05T12:26:15;95582.16;;;30.67;39.63
65800;BME280;52544;48.116;11.660;2022-08-05T12:28:40;95582.69;;;30.69;39.21
65800;BME280;52544;48.116;11.660;2022-08-05T12:31:06;95580.97;;;30.85;37.47
65800;BME280;52544;48.116;11.660;2022-08-05T12:33:32;95571.50;;;30.71;38.27
65800;BME280;52544;48.116;11.660;2022-08-05T12:35:57;95572.97;;;30.78;38.32
65800;BME280;52544;48.116;11.660;2022-08-05T12:38:24;95567.72;;;30.72;38.82
65800;BME280;52544;48.116;11.660;2022-08-05T12:40:50;95578.25;;;30.85;39.28
65800;BME280;52544;48.116;11.660;2022-08-05T12:43:16;95564.63;;;30.90;38.33
65800;BME280;52544;48.116;11.660;2022-08-05T12:45:54;95568.94;;;30.81;39.84
65800;BME280;52544;48.116;11.660;2022-08-05T12:48:21;95561.63;;;30.65;39.03
65800;BME280;52544;48.116;11.660;2022-08-05T12:51:08;95563.19;;;30.55;38.51
65800;BME280;52544;48.116;11.660;2022-08-05T12:53:39;95553.72;;;30.41;39.95
65800;BME280;52544;48.116;11.660;2022-08-05T12:56:20;95558.81;;;30.32;39.39
65800;BME280;52544;48.116;11.660;2022-08-05T12:59:25;95553.06;;;30.29;39.66
65800;BME280;52544;48.116;11.660;2022-08-05T13:01:58;95553.25;;;30.49;40.55
65800;BME280;52544;48.116;11.660;2022-08-05T13:04:29;95551.41;;;30.77;39.37
65800;BME280;52544;48.116;11.660;2022-08-05T13:06:59;95550.31;;;30.78;39.69
65800;BME280;52544;48.116;11.660;2022-08-05T13:09:26;95546.34;;;30.91;39.97
65800;BME280;52544;48.116;11.660;2022-08-05T13:12:02;95541.38;;;30.87;39.91
65800;BME280;52544;48.116;11.660;2022-08-05T13:14:36;95537.75;;;30.77;38.68
65800;BME280;52544;48.116;11.660;2022-08-05T13:17:15;95543.53;;;30.80;39.36
65800;BME280;52544;48.116;11.660;2022-08-05T13:20:05;95541.66;;;30.86;38.72
65800;BME280;52544;48.116;11.660;2022-08-05T13:22:33;95541.66;;;30.86;39.41